Latest Weather Observations for Falls Creek

IDV60801

Issued at 6:22 pm EDT Friday 14 December 2018 (issued every 10 minutes, with the page automatically refreshed every 10 minutes)

About weather observations | Map of weather stations | Latest weather observations for VIC | Other Formats
Station Details ID: 083084 Name: FALLS CREEK Lat: -36.87 Lon: 147.28 Height: 1765.0 m
Data from the previous 72 hours. | See also: Recent months at Falls Creek
Date/Time
EDT
Temp
°C
App
Temp
°C
Dew
Point
°C
Rel
Hum
%
Delta-T
°C
Wind Press
QNH
hPa
Press
MSL
hPa
Rain since
9am
mm
Dir  Spd
km/h
Gust
km/h
Spd
kts
Gust
kts
14/06:00pm 11.3 7.8 10.2 93 0.6 ESE 19 28 10 15 1009.4 1002.7 0.4
14/05:30pm 12.5 7.3 10.2 86 1.3 ENE 28 43 15 23 1009.0 1002.3 0.4
14/05:00pm 11.6 5.7 10.3 92 0.7 ENE 32 41 17 22 1008.5 1001.7 0.4
14/04:30pm 12.3 8.8 11.0 92 0.7 E 20 32 11 17 1008.9 1002.2 0.4
14/04:00pm 13.1 9.0 11.3 89 1.0 E 24 35 13 19 1008.9 1002.2 0.0
14/03:30pm 13.6 8.6 10.8 83 1.6 ENE 28 39 15 21 1008.7 1001.9 0.0
14/03:00pm 13.3 8.6 10.5 83 1.6 NE 26 39 14 21 1008.7 1001.9 0.0
14/02:30pm 13.4 8.1 9.8 79 2.0 NE 28 37 15 20 1008.5 1001.7 0.0
14/02:00pm 12.8 6.4 9.4 80 1.9 ENE 33 43 18 23 1008.5 1001.7 0.0
14/01:30pm 13.6 6.9 9.8 78 2.1 NE 35 46 19 25 1008.6 1001.8 0.0
14/01:03pm 15.2 9.3 10.6 74 2.7 NE 32 50 17 27 1008.6 1001.8 0.0
14/01:00pm 15.5 9.8 11.1 75 2.6 NE 32 46 17 25 1008.6 1001.8 0.0
14/12:30pm 13.2 7.2 10.2 82 1.7 NE 32 44 17 24 1008.6 1001.8 0.0
14/12:06pm 13.8 8.1 9.8 77 2.3 NE 30 48 16 26 1008.2 1001.4 0.0
14/12:00pm 12.7 6.9 9.5 81 1.8 NE 30 44 16 24 1008.2 1001.4 0.0
14/11:30am 13.3 8.1 10.1 81 1.8 NE 28 43 15 23 1008.1 1001.3 0.0
14/11:26am 13.1 7.8 9.9 81 1.8 NE 28 46 15 25 1008.1 1001.3 0.0
14/11:00am 12.1 7.2 10.0 87 1.2 NE 26 39 14 21 1007.9 1001.1 0.0
14/10:30am 10.8 4.3 8.9 88 1.0 NNE 33 54 18 29 1007.7 1000.9 0.0
14/10:00am 11.2 4.5 9.8 91 0.8 NE 35 54 19 29 1007.5 1000.7 0.0
14/09:57am 11.3 5.0 9.7 90 0.9 NE 33 54 18 29 1007.4 1000.6 0.0
14/09:30am 10.4 4.5 9.0 91 0.8 NE 30 41 16 22 1007.5 1000.7 0.0
14/09:01am 10.8 5.3 9.1 89 0.9 NE 28 46 15 25 1007.4 1000.6 0.0
14/09:00am 10.7 5.5 8.8 88 1.0 NE 26 46 14 25 1007.3 1000.4 22.8
14/08:42am 10.0 3.3 8.1 88 1.0 NE 33 52 18 28 1006.9 1000.1 22.8
14/08:30am 9.2 0.3 6.8 85 1.2 NE 43 56 23 30 1006.4 999.6 22.8
14/08:11am 8.9 0.9 7.4 90 0.8 NNE 39 57 21 31 1006.6 999.7 22.6
14/08:00am 8.8 1.8 8.4 97 0.2 NNE 35 46 19 25 1006.8 1000.0 22.6
14/07:47am 8.9 2.6 8.8 99 0.1 NE 32 54 17 29 1007.1 1000.3 22.0
14/07:30am 8.8 2.4 8.7 99 0.1 NE 32 44 17 24 1006.8 1000.0 20.2
14/07:00am 8.9 4.5 8.8 99 0.1 E 22 30 12 16 1006.0 999.1 18.6
14/06:30am 8.6 4.1 8.5 99 0.1 ENE 22 30 12 16 1006.4 999.6 18.2
14/06:00am 8.6 2.9 8.3 98 0.2 E 28 35 15 19 1005.4 998.5 18.2
14/05:30am 9.0 2.6 8.4 96 0.3 ENE 32 43 17 23 1005.5 998.6 17.8
14/05:00am 9.3 3.3 8.8 97 0.3 E 30 41 16 22 1004.3 997.4 17.4
14/04:30am 9.2 3.2 8.7 97 0.3 ENE 30 37 16 20 1004.6 997.7 17.4
14/04:00am 8.9 3.3 8.8 99 0.1 ENE 28 39 15 21 1004.5 997.6 17.4
14/03:30am 9.0 3.1 8.9 99 0.1 NNE 30 44 16 24 1004.6 997.7 17.4
14/03:00am 9.1 3.6 9.0 99 0.1 NE 28 39 15 21 1004.9 998.0 17.4
14/02:30am 8.9 2.9 8.8 99 0.1 NNE 30 41 16 22 1004.4 997.5 17.4
14/02:00am 8.9 3.7 8.8 99 0.1 NNE 26 37 14 20 1004.9 998.0 17.4
14/01:30am 8.8 3.2 8.7 99 0.1 NNE 28 43 15 23 1005.1 998.2 17.4
14/01:00am 9.3 3.8 9.2 99 0.1 NNE 28 39 15 21 1004.6 997.7 17.4
14/12:30am 9.5 3.3 9.4 99 0.1 NNE 32 44 17 24 1004.8 997.9 17.4
14/12:00am 9.0 3.4 8.9 99 0.1 NNE 28 39 15 21 1004.9 998.0 17.4
 
Date/Time
EDT
Temp
°C
App
Temp
°C
Dew
Point
°C
Rel
Hum
%
Delta-T
°C
Wind Press
QNH
hPa
Press
MSL
hPa
Rain since
9am
mm
Dir  Spd
km/h
Gust
km/h
Spd
kts
Gust
kts
13/11:41pm 9.0 2.4 8.7 98 0.2 NNE 33 52 18 28 1004.9 998.0 17.4
13/11:30pm 9.3 2.4 8.8 97 0.3 NNE 35 50 19 27 1004.5 997.6 17.4
13/11:07pm 9.4 3.4 8.8 96 0.3 NE 30 48 16 26 1004.6 997.7 17.4
13/11:00pm 9.1 3.5 8.6 97 0.3 NE 28 39 15 21 1004.8 997.9 17.4
13/10:30pm 8.2 4.2 8.1 99 0.1 E 19 28 10 15 1004.9 998.0 17.2
13/10:00pm 8.7 4.6 8.6 99 0.1 ESE 20 28 11 15 1004.9 998.0 17.2
13/09:30pm 8.7 4.6 8.6 99 0.1 SE 20 28 11 15 1004.6 997.7 17.2
13/09:00pm 8.6 5.4 8.5 99 0.1 SE 15 20 8 11 1004.6 997.7 17.2
13/08:30pm 8.4 4.8 8.3 99 0.1 SSE 17 22 9 12 1004.3 997.4 17.2
13/08:00pm 8.2 4.5 7.9 98 0.2 SSE 17 22 9 12 1004.1 997.1 17.2
13/07:30pm 7.3 2.0 7.0 98 0.2 SSW 24 32 13 17 1003.9 997.0 17.2
13/07:04pm 8.0 4.2 7.7 98 0.2 SW 17 48 9 26 1004.5 997.6 16.8
13/07:00pm 8.5 6.4 8.2 98 0.2 SSW 9 20 5 11 1004.6 997.7 16.4
13/06:30pm 9.3 7.7 8.8 97 0.3 NE 7 19 4 10 1004.2 997.2 13.4
13/06:00pm 10.4 7.7 10.2 99 0.1 NE 15 22 8 12 1003.7 996.8 10.0
13/05:30pm 10.9 7.9 10.7 99 0.1 ESE 17 24 9 13 1003.2 996.3 9.0
13/05:00pm 10.8 7.4 10.6 99 0.1 ESE 19 24 10 13 1003.0 996.0 8.6
13/04:30pm 11.1 8.6 10.9 99 0.1 SE 15 19 8 10 1003.0 996.0 8.6
13/04:00pm 10.8 9.3 10.6 99 0.1 S 9 13 5 7 1003.6 996.6 8.6
13/03:30pm 11.1 10.1 10.9 99 0.1 WNW 7 15 4 8 1004.2 997.2 8.4
13/03:00pm 10.5 8.2 10.3 99 0.1 NW 13 22 7 12 1003.7 996.8 8.0
13/02:30pm 10.6 8.7 10.4 99 0.1 NNW 11 20 6 11 1003.7 996.8 7.4
13/02:00pm 10.5 8.2 10.3 99 0.1 NNW 13 20 7 11 1003.6 996.6 7.4
13/01:30pm 10.9 7.9 10.7 99 0.1 N 17 26 9 14 1003.3 996.4 7.4
13/01:00pm 10.8 7.2 10.6 99 0.1 NNW 20 32 11 17 1003.7 996.8 7.4
13/12:30pm 11.1 6.8 10.9 99 0.1 NNW 24 35 13 19 1003.7 996.8 7.4
13/12:00pm 10.8 6.8 10.6 99 0.1 NNW 22 32 12 17 1003.5 996.5 7.4
13/11:30am 11.1 7.6 10.9 99 0.1 N 20 32 11 17 1003.6 996.6 7.2
13/11:00am 10.4 6.7 10.2 99 0.1 NNW 20 33 11 18 1003.3 996.4 7.0
13/10:30am 10.2 5.3 10.1 99 0.1 NNW 26 41 14 22 1003.8 996.9 6.4
13/10:04am 11.0 4.6 10.8 99 0.1 NNW 35 56 19 30 1003.3 996.4 3.2
13/10:00am 10.9 4.5 10.7 99 0.1 NNW 35 50 19 27 1003.3 996.4 2.8
13/09:54am 10.9 3.4 10.7 99 0.1 NNW 41 69 22 37 1003.5 996.5 2.6
13/09:30am 11.0 0.6 10.8 99 0.1 N 56 83 30 45 1003.3 996.4 1.0
13/09:14am 10.9 2.0 10.7 99 0.1 N 48 80 26 43 1002.5 995.5 0.4
13/09:08am 10.8 4.9 10.6 99 0.1 N 32 69 17 37 1003.3 996.4 0.2
13/09:00am 10.4 4.4 10.2 99 0.1 N 32 48 17 26 1003.8 996.9 12.2
13/08:53am 10.3 4.7 10.1 99 0.1 N 30 48 16 26 1003.9 997.0 12.0
13/08:30am 9.7 5.1 9.6 99 0.1 NNE 24 33 13 18 1004.5 997.6 10.8
13/08:00am 9.6 3.8 9.3 98 0.2 NNE 30 46 16 25 1004.6 997.7 8.6
13/07:30am 9.5 1.1 9.0 97 0.3 NE 43 61 23 33 1004.5 997.6 7.4
13/07:01am 9.7 3.3 9.4 98 0.2 NE 33 52 18 28 1005.2 998.4 5.8
13/07:00am 9.6 3.2 9.3 98 0.2 NE 33 46 18 25 1005.2 998.4 5.8
13/06:38am 9.8 4.4 9.5 98 0.2 NE 28 48 15 26 1005.7 998.8 4.8
13/06:30am 9.8 5.1 9.3 97 0.3 ENE 24 37 13 20 1006.0 999.1 4.2
13/06:00am 9.9 6.0 9.6 98 0.2 NNE 20 30 11 16 1006.4 999.6 2.2
13/05:30am 10.0 5.7 9.5 97 0.3 NNE 22 35 12 19 1006.7 999.8 0.6
13/05:00am 10.2 4.4 9.6 96 0.3 N 30 39 16 21 1007.0 1000.2 0.0
13/04:30am 10.3 3.9 9.5 95 0.4 N 33 52 18 28 1007.1 1000.3 0.0
13/04:02am 10.3 4.2 9.7 96 0.3 N 32 50 17 27 1007.6 1000.8 0.0
13/04:00am 10.4 4.3 9.8 96 0.3 N 32 48 17 26 1007.6 1000.8 0.0
13/03:57am 10.4 4.7 9.8 96 0.3 N 30 48 16 26 1007.7 1000.9 0.0
13/03:30am 11.1 4.8 9.7 91 0.8 N 33 48 18 26 1008.0 1001.2 0.0
13/03:00am 11.8 6.8 9.5 86 1.3 N 26 44 14 24 1008.3 1001.6 0.0
13/02:49am 12.0 6.5 9.0 82 1.7 N 28 48 15 26 1008.5 1001.7 0.0
13/02:30am 12.2 7.5 9.4 83 1.6 N 24 37 13 20 1009.2 1002.4 0.0
13/02:15am 12.4 4.8 9.2 81 1.8 N 39 57 21 31 1009.0 1002.3 0.0
13/02:00am 12.3 5.6 9.7 84 1.5 N 35 50 19 27 1009.3 1002.5 0.0
13/01:30am 12.5 5.4 9.5 82 1.7 N 37 56 20 30 1009.6 1002.9 0.0
13/01:27am 12.5 6.1 9.5 82 1.7 N 33 54 18 29 1009.6 1002.9 0.0
13/01:00am 12.6 6.0 8.7 77 2.2 N 33 44 18 24 1010.2 1003.5 0.0
13/12:30am 13.1 7.4 8.2 72 2.7 N 28 44 15 24 1011.1 1004.4 0.0
13/12:00am 13.3 8.3 8.2 71 2.8 N 24 37 13 20 1011.8 1005.1 0.0
 
Date/Time
EDT
Temp
°C
App
Temp
°C
Dew
Point
°C
Rel
Hum
%
Delta-T
°C
Wind Press
QNH
hPa
Press
MSL
hPa
Rain since
9am
mm
Dir  Spd
km/h
Gust
km/h
Spd
kts
Gust
kts
12/11:30pm 13.6 7.8 7.8 68 3.2 N 28 41 15 22 1012.1 1005.5 0.0
12/11:00pm 13.6 9.2 7.6 67 3.3 N 20 30 11 16 1012.6 1006.0 0.0
12/10:30pm 13.5 9.4 7.9 69 3.0 N 19 26 10 14 1013.1 1006.5 0.0
12/10:00pm 13.1 9.9 8.6 74 2.5 N 15 20 8 11 1013.7 1007.1 0.0
12/09:30pm 13.1 11.1 8.8 75 2.4 NE 9 11 5 6 1014.0 1007.5 0.0
12/09:00pm 12.8 10.7 8.3 74 2.5 ESE 9 11 5 6 1013.7 1007.1 0.0
12/08:30pm 12.8 10.0 8.5 75 2.4 SE 13 19 7 10 1013.3 1006.7 0.0
12/08:00pm 13.5 10.4 8.8 73 2.6 SE 15 19 8 10 1013.7 1007.1 0.0
12/07:30pm 15.1 12.4 8.8 66 3.5 SE 13 24 7 13 1013.8 1007.2 0.0
12/07:00pm 16.3 14.6 9.9 66 3.7 NNW 9 13 5 7 1013.7 1007.1 0.0
12/06:30pm 16.2 14.0 9.4 64 3.9 NNW 11 17 6 9 1013.8 1007.2 0.0
12/06:00pm 16.5 14.4 9.7 64 3.9 NNW 11 17 6 9 1013.9 1007.3 0.0
12/05:30pm 15.6 12.3 9.5 67 3.5 N 17 24 9 13 1014.2 1007.6 0.0
12/05:00pm 16.4 13.0 9.3 63 4.0 NNW 17 24 9 13 1014.9 1008.3 0.0
12/04:30pm 16.5 12.9 9.7 64 3.9 NNW 19 30 10 16 1015.1 1008.6 0.0
12/04:00pm 16.5 12.7 9.7 64 3.9 NNW 20 33 11 18 1015.8 1009.3 0.0
12/03:30pm 17.2 14.2 10.8 66 3.7 N 17 28 9 15 1016.1 1009.6 0.0
12/03:00pm 16.8 13.3 10.2 65 3.8 NNW 19 30 10 16 1016.3 1009.8 0.0
12/02:30pm 15.9 12.8 10.4 70 3.2 N 17 28 9 15 1016.8 1010.3 0.0
12/02:00pm 17.4 14.7 10.5 64 4.0 NNW 15 28 8 15 1017.0 1010.5 0.0
12/01:30pm 16.8 13.4 10.6 67 3.6 NNW 19 28 10 15 1017.6 1011.2 0.0
12/01:00pm 17.0 14.5 11.1 68 3.5 NNW 15 28 8 15 1018.1 1011.6 0.0
12/12:30pm 16.8 14.6 10.9 68 3.5 N 13 24 7 13 1018.2 1011.8 0.0
12/12:00pm 16.1 13.4 11.7 75 2.6 NNW 17 26 9 14 1018.6 1012.1 0.0
12/11:30am 16.0 12.5 10.3 69 3.3 NNW 19 28 10 15 1018.8 1012.4 0.0
12/11:00am 14.2 11.2 9.2 72 2.8 NNW 15 24 8 13 1018.8 1012.4 0.0
12/10:30am 14.5 10.6 8.7 68 3.2 NNW 19 28 10 15 1018.7 1012.3 0.0
12/10:00am 14.0 10.6 9.2 73 2.7 NNW 17 24 9 13 1019.2 1012.8 0.0
12/09:30am 12.6 9.1 8.9 78 2.0 NNW 17 26 9 14 1019.6 1013.2 0.0
12/09:00am 12.2 8.8 9.0 81 1.8 NNW 17 26 9 14 1019.8 1013.4 1.8
12/08:30am 11.7 8.2 8.6 81 1.7 NNW 17 22 9 12 1019.8 1013.4 1.8
12/08:00am 11.2 8.5 9.1 87 1.2 NNW 13 20 7 11 1019.5 1013.1 1.8
12/07:30am 10.0 6.0 8.4 90 0.9 NW 19 26 10 14 1019.5 1013.1 1.8
12/07:00am 10.7 6.3 7.2 79 1.8 NW 20 24 11 13 1019.2 1012.8 1.8
12/06:30am 11.1 6.6 6.8 75 2.3 NNW 20 28 11 15 1019.2 1012.8 1.8
12/06:00am 10.6 6.5 6.4 75 2.2 NW 17 20 9 11 1018.9 1012.5 1.8
12/05:30am 10.6 6.4 5.6 71 2.5 NNW 17 20 9 11 1018.9 1012.5 1.8
12/05:00am 11.0 7.1 7.3 78 2.0 NW 17 24 9 13 1019.0 1012.6 1.8
12/04:30am 11.4 8.3 7.3 76 2.2 NW 13 15 7 8 1019.0 1012.6 1.8
12/04:00am 11.2 7.8 5.7 69 2.8 WNW 13 17 7 9 1019.0 1012.6 1.8
12/03:30am 11.0 7.6 3.8 61 3.5 WNW 11 19 6 10 1019.3 1012.9 1.8
12/03:00am 11.0 8.5 4.0 62 3.5 NNE 6 11 3 6 1020.0 1013.6 1.8
12/02:30am 9.8 5.8 5.0 72 2.4 NNE 15 30 8 16 1021.2 1014.8 1.6
12/02:00am 9.5 2.2 7.3 86 1.2 WNW 35 50 19 27 1020.5 1014.1 1.0
12/01:30am 9.7 4.5 8.9 95 0.4 NNW 26 37 14 20 1020.7 1014.4 0.8
12/01:00am 10.9 5.8 6.1 72 2.5 WNW 22 32 12 17 1020.3 1014.0 0.8
12/12:30am 9.9 4.0 7.5 85 1.3 NW 28 33 15 18 1021.3 1015.0 0.8
12/12:00am 10.4 5.0 9.5 94 0.5 NW 28 37 15 20 1021.7 1015.3 0.2
 
Date/Time
EDT
Temp
°C
App
Temp
°C
Dew
Point
°C
Rel
Hum
%
Delta-T
°C
Wind Press
QNH
hPa
Press
MSL
hPa
Rain since
9am
mm
Dir  Spd
km/h
Gust
km/h
Spd
kts
Gust
kts
11/11:30pm 11.5 9.0 9.6 88 1.1 N 13 20 7 11 1021.4 1015.1 0.0
11/11:00pm 11.3 9.6 9.7 90 0.9 E 9 19 5 10 1021.5 1015.2 0.0
11/10:30pm 11.2 9.4 9.6 90 0.9 ESE 9 17 5 9 1022.0 1015.7 0.0
11/10:00pm 11.3 9.3 10.0 92 0.7 SE 11 17 6 9 1022.1 1015.8 0.0
11/09:30pm 11.5 9.1 10.2 92 0.7 ESE 13 17 7 9 1022.0 1015.7 0.0
11/09:00pm 11.6 9.6 10.0 90 0.9 SE 11 15 6 8 1021.9 1015.6 0.0
11/08:30pm 12.2 9.5 10.4 89 1.0 SE 15 20 8 11 1021.9 1015.6 0.0
11/08:00pm 13.5 11.3 10.9 84 1.5 SE 13 22 7 12 1021.7 1015.3 0.0
11/07:30pm 15.1 12.6 10.9 76 2.4 SE 15 22 8 12 1021.5 1015.2 0.0
11/07:00pm 15.7 13.5 10.7 72 2.9 ESE 13 19 7 10 1020.9 1014.6 0.0
11/06:30pm 17.4 15.1 10.5 64 4.0 SE 13 19 7 10 1020.7 1014.4 0.0

Other Formats:

Comma delimited format used in spreadsheet applications
http://www.bom.gov.au/fwo/IDV60801/IDV60801.94903.axf

JavaScript Object Notation format (JSON) in row-major order
http://www.bom.gov.au/fwo/IDV60801/IDV60801.94903.json